sensor_id;sensor_type;location;lat;lon;timestamp;P1;durP1;ratioP1;P2;durP2;ratioP2
51852;SDS011;37894;53.172;6.598;2022-12-20T00:01:13;8.95;;;5.47;;
51852;SDS011;37894;53.172;6.598;2022-12-20T00:03:43;11.00;;;6.15;;
51852;SDS011;37894;53.172;6.598;2022-12-20T00:06:09;10.95;;;5.90;;
51852;SDS011;37894;53.172;6.598;2022-12-20T00:08:36;8.90;;;5.47;;
51852;SDS011;37894;53.172;6.598;2022-12-20T00:11:04;12.63;;;5.47;;
51852;SDS011;37894;53.172;6.598;2022-12-20T00:13:31;8.55;;;5.05;;
51852;SDS011;37894;53.172;6.598;2022-12-20T00:16:10;7.95;;;4.90;;
51852;SDS011;37894;53.172;6.598;2022-12-20T00:18:38;7.78;;;5.03;;
51852;SDS011;37894;53.172;6.598;2022-12-20T00:21:05;9.07;;;4.82;;
51852;SDS011;37894;53.172;6.598;2022-12-20T00:23:32;9.80;;;5.30;;
51852;SDS011;37894;53.172;6.598;2022-12-20T00:25:59;7.72;;;4.97;;
51852;SDS011;37894;53.172;6.598;2022-12-20T00:28:26;7.55;;;5.00;;
51852;SDS011;37894;53.172;6.598;2022-12-20T00:30:53;9.68;;;5.20;;
51852;SDS011;37894;53.172;6.598;2022-12-20T00:33:19;12.60;;;5.45;;
51852;SDS011;37894;53.172;6.598;2022-12-20T00:35:44;10.73;;;4.97;;
51852;SDS011;37894;53.172;6.598;2022-12-20T00:38:10;8.00;;;4.63;;
51852;SDS011;37894;53.172;6.598;2022-12-20T00:40:36;7.25;;;4.75;;
51852;SDS011;37894;53.172;6.598;2022-12-20T00:43:02;10.38;;;4.93;;
51852;SDS011;37894;53.172;6.598;2022-12-20T00:45:28;9.95;;;4.80;;
51852;SDS011;37894;53.172;6.598;2022-12-20T00:47:54;7.60;;;4.30;;
51852;SDS011;37894;53.172;6.598;2022-12-20T00:50:19;8.35;;;4.70;;
51852;SDS011;37894;53.172;6.598;2022-12-20T00:52:45;6.68;;;4.25;;
51852;SDS011;37894;53.172;6.598;2022-12-20T00:55:11;8.77;;;4.35;;
51852;SDS011;37894;53.172;6.598;2022-12-20T00:57:36;7.15;;;4.43;;
51852;SDS011;37894;53.172;6.598;2022-12-20T01:00:02;8.23;;;4.28;;
51852;SDS011;37894;53.172;6.598;2022-12-20T01:02:29;7.47;;;4.30;;
51852;SDS011;37894;53.172;6.598;2022-12-20T01:04:54;6.93;;;4.57;;
51852;SDS011;37894;53.172;6.598;2022-12-20T01:07:20;6.88;;;4.07;;
51852;SDS011;37894;53.172;6.598;2022-12-20T01:09:47;7.43;;;4.18;;
51852;SDS011;37894;53.172;6.598;2022-12-20T01:12:13;7.22;;;4.40;;
51852;SDS011;37894;53.172;6.598;2022-12-20T01:14:39;7.85;;;4.10;;
51852;SDS011;37894;53.172;6.598;2022-12-20T01:17:05;8.10;;;4.13;;
51852;SDS011;37894;53.172;6.598;2022-12-20T01:19:31;5.75;;;3.88;;
51852;SDS011;37894;53.172;6.598;2022-12-20T01:21:57;6.22;;;3.60;;
51852;SDS011;37894;53.172;6.598;2022-12-20T01:24:22;9.75;;;5.10;;
51852;SDS011;37894;53.172;6.598;2022-12-20T01:26:48;8.35;;;4.07;;
51852;SDS011;37894;53.172;6.598;2022-12-20T01:29:14;6.80;;;4.15;;
51852;SDS011;37894;53.172;6.598;2022-12-20T01:31:40;9.18;;;3.78;;
51852;SDS011;37894;53.172;6.598;2022-12-20T01:34:06;5.55;;;3.70;;
51852;SDS011;37894;53.172;6.598;2022-12-20T01:36:33;7.00;;;4.20;;
51852;SDS011;37894;53.172;6.598;2022-12-20T01:39:06;7.38;;;4.13;;
51852;SDS011;37894;53.172;6.598;2022-12-20T01:41:37;10.52;;;5.05;;
51852;SDS011;37894;53.172;6.598;2022-12-20T01:46:43;7.22;;;4.20;;
51852;SDS011;37894;53.172;6.598;2022-12-20T01:49:13;7.30;;;4.00;;
51852;SDS011;37894;53.172;6.598;2022-12-20T01:51:43;7.65;;;3.85;;
51852;SDS011;37894;53.172;6.598;2022-12-20T01:54:14;6.55;;;4.10;;
51852;SDS011;37894;53.172;6.598;2022-12-20T01:56:45;7.15;;;4.45;;
51852;SDS011;37894;53.172;6.598;2022-12-20T01:59:14;7.32;;;3.45;;
51852;SDS011;37894;53.172;6.598;2022-12-20T02:01:41;6.70;;;3.88;;
51852;SDS011;37894;53.172;6.598;2022-12-20T02:04:07;7.18;;;3.83;;
51852;SDS011;37894;53.172;6.598;2022-12-20T02:06:34;6.32;;;3.65;;
51852;SDS011;37894;53.172;6.598;2022-12-20T02:09:00;6.75;;;4.25;;
51852;SDS011;37894;53.172;6.598;2022-12-20T02:28:17;5.25;;;3.80;;
51852;SDS011;37894;53.172;6.598;2022-12-20T02:30:59;6.22;;;3.88;;
51852;SDS011;37894;53.172;6.598;2022-12-20T02:33:28;6.78;;;3.95;;
51852;SDS011;37894;53.172;6.598;2022-12-20T02:35:54;9.32;;;3.63;;
51852;SDS011;37894;53.172;6.598;2022-12-20T02:38:27;7.13;;;3.90;;
51852;SDS011;37894;53.172;6.598;2022-12-20T02:41:18;7.05;;;3.53;;
51852;SDS011;37894;53.172;6.598;2022-12-20T02:43:48;8.15;;;4.32;;
51852;SDS011;37894;53.172;6.598;2022-12-20T02:46:38;5.72;;;3.40;;
51852;SDS011;37894;53.172;6.598;2022-12-20T02:49:07;8.13;;;4.10;;
51852;SDS011;37894;53.172;6.598;2022-12-20T02:51:36;6.05;;;3.80;;
51852;SDS011;37894;53.172;6.598;2022-12-20T02:54:03;8.93;;;4.32;;
51852;SDS011;37894;53.172;6.598;2022-12-20T02:56:31;6.00;;;3.80;;
51852;SDS011;37894;53.172;6.598;2022-12-20T03:01:48;6.72;;;4.38;;
51852;SDS011;37894;53.172;6.598;2022-12-20T03:04:17;7.43;;;4.40;;
51852;SDS011;37894;53.172;6.598;2022-12-20T03:06:55;9.40;;;4.55;;
51852;SDS011;37894;53.172;6.598;2022-12-20T03:09:27;7.32;;;4.65;;
51852;SDS011;37894;53.172;6.598;2022-12-20T03:11:54;7.22;;;4.35;;
51852;SDS011;37894;53.172;6.598;2022-12-20T03:14:21;7.47;;;4.65;;
51852;SDS011;37894;53.172;6.598;2022-12-20T03:16:46;8.55;;;4.25;;
51852;SDS011;37894;53.172;6.598;2022-12-20T03:19:12;7.25;;;4.80;;
51852;SDS011;37894;53.172;6.598;2022-12-20T03:21:38;6.18;;;4.38;;
51852;SDS011;37894;53.172;6.598;2022-12-20T03:24:05;9.13;;;5.07;;
51852;SDS011;37894;53.172;6.598;2022-12-20T03:26:31;9.95;;;5.10;;
51852;SDS011;37894;53.172;6.598;2022-12-20T03:28:57;8.68;;;4.43;;
51852;SDS011;37894;53.172;6.598;2022-12-20T03:31:22;10.65;;;4.40;;
51852;SDS011;37894;53.172;6.598;2022-12-20T03:33:48;12.82;;;4.65;;
51852;SDS011;37894;53.172;6.598;2022-12-20T03:36:14;9.25;;;4.80;;
51852;SDS011;37894;53.172;6.598;2022-12-20T03:38:40;9.98;;;4.80;;
51852;SDS011;37894;53.172;6.598;2022-12-20T03:41:06;7.25;;;4.78;;
51852;SDS011;37894;53.172;6.598;2022-12-20T03:43:31;8.77;;;4.35;;
51852;SDS011;37894;53.172;6.598;2022-12-20T03:45:57;10.05;;;4.55;;
51852;SDS011;37894;53.172;6.598;2022-12-20T03:48:23;8.80;;;4.78;;
51852;SDS011;37894;53.172;6.598;2022-12-20T03:50:48;6.80;;;4.63;;
51852;SDS011;37894;53.172;6.598;2022-12-20T03:53:14;8.20;;;4.30;;
51852;SDS011;37894;53.172;6.598;2022-12-20T03:55:40;8.80;;;4.70;;
51852;SDS011;37894;53.172;6.598;2022-12-20T03:58:06;11.38;;;4.78;;
51852;SDS011;37894;53.172;6.598;2022-12-20T04:00:31;8.70;;;4.78;;
51852;SDS011;37894;53.172;6.598;2022-12-20T04:02:57;10.70;;;4.97;;
51852;SDS011;37894;53.172;6.598;2022-12-20T04:05:23;9.10;;;4.70;;
51852;SDS011;37894;53.172;6.598;2022-12-20T04:07:48;10.13;;;4.75;;
51852;SDS011;37894;53.172;6.598;2022-12-20T04:10:15;6.43;;;4.57;;
51852;SDS011;37894;53.172;6.598;2022-12-20T04:12:40;9.63;;;4.75;;
51852;SDS011;37894;53.172;6.598;2022-12-20T04:15:06;10.15;;;4.50;;
51852;SDS011;37894;53.172;6.598;2022-12-20T04:17:32;7.65;;;4.40;;
51852;SDS011;37894;53.172;6.598;2022-12-20T04:19:58;7.80;;;4.57;;
51852;SDS011;37894;53.172;6.598;2022-12-20T04:22:43;8.48;;;4.82;;
51852;SDS011;37894;53.172;6.598;2022-12-20T04:25:10;9.65;;;4.53;;
51852;SDS011;37894;53.172;6.598;2022-12-20T04:27:36;6.72;;;4.18;;
51852;SDS011;37894;53.172;6.598;2022-12-20T04:30:02;6.80;;;4.78;;
51852;SDS011;37894;53.172;6.598;2022-12-20T04:32:28;8.20;;;5.13;;
51852;SDS011;37894;53.172;6.598;2022-12-20T04:34:53;7.78;;;4.75;;
51852;SDS011;37894;53.172;6.598;2022-12-20T04:37:19;7.45;;;4.55;;
51852;SDS011;37894;53.172;6.598;2022-12-20T04:39:45;8.48;;;5.20;;
51852;SDS011;37894;53.172;6.598;2022-12-20T04:42:10;6.70;;;4.75;;
51852;SDS011;37894;53.172;6.598;2022-12-20T04:44:36;7.90;;;5.32;;
51852;SDS011;37894;53.172;6.598;2022-12-20T04:47:02;8.48;;;5.32;;
51852;SDS011;37894;53.172;6.598;2022-12-20T04:49:28;10.13;;;5.13;;
51852;SDS011;37894;53.172;6.598;2022-12-20T04:51:53;10.40;;;5.47;;
51852;SDS011;37894;53.172;6.598;2022-12-20T04:54:39;9.98;;;4.93;;
51852;SDS011;37894;53.172;6.598;2022-12-20T04:57:05;7.82;;;5.47;;
51852;SDS011;37894;53.172;6.598;2022-12-20T04:59:30;7.25;;;4.85;;
51852;SDS011;37894;53.172;6.598;2022-12-20T05:01:56;8.43;;;5.07;;
51852;SDS011;37894;53.172;6.598;2022-12-20T05:04:22;6.65;;;4.88;;
51852;SDS011;37894;53.172;6.598;2022-12-20T05:06:48;9.18;;;5.15;;
51852;SDS011;37894;53.172;6.598;2022-12-20T05:09:13;9.35;;;5.72;;
51852;SDS011;37894;53.172;6.598;2022-12-20T05:11:39;8.80;;;4.80;;
51852;SDS011;37894;53.172;6.598;2022-12-20T05:14:05;8.80;;;4.68;;
51852;SDS011;37894;53.172;6.598;2022-12-20T05:16:30;7.85;;;5.05;;
51852;SDS011;37894;53.172;6.598;2022-12-20T05:18:56;7.18;;;4.82;;
51852;SDS011;37894;53.172;6.598;2022-12-20T05:21:22;7.50;;;4.57;;
51852;SDS011;37894;53.172;6.598;2022-12-20T05:24:07;8.73;;;4.70;;
51852;SDS011;37894;53.172;6.598;2022-12-20T05:26:52;8.82;;;5.28;;
51852;SDS011;37894;53.172;6.598;2022-12-20T05:29:18;7.97;;;4.70;;
51852;SDS011;37894;53.172;6.598;2022-12-20T05:31:44;9.05;;;4.82;;
51852;SDS011;37894;53.172;6.598;2022-12-20T05:34:10;10.32;;;4.80;;
51852;SDS011;37894;53.172;6.598;2022-12-20T05:36:35;7.95;;;4.93;;
51852;SDS011;37894;53.172;6.598;2022-12-20T05:39:01;6.40;;;4.50;;
51852;SDS011;37894;53.172;6.598;2022-12-20T05:41:27;9.63;;;4.60;;
51852;SDS011;37894;53.172;6.598;2022-12-20T05:43:52;5.88;;;4.30;;
51852;SDS011;37894;53.172;6.598;2022-12-20T05:46:18;7.43;;;4.25;;
51852;SDS011;37894;53.172;6.598;2022-12-20T05:48:44;6.97;;;4.93;;
51852;SDS011;37894;53.172;6.598;2022-12-20T05:51:09;8.00;;;5.38;;
51852;SDS011;37894;53.172;6.598;2022-12-20T05:53:35;8.23;;;4.35;;
51852;SDS011;37894;53.172;6.598;2022-12-20T05:56:01;8.13;;;4.50;;
51852;SDS011;37894;53.172;6.598;2022-12-20T05:58:27;10.50;;;5.28;;
51852;SDS011;37894;53.172;6.598;2022-12-20T06:00:53;6.80;;;4.00;;
51852;SDS011;37894;53.172;6.598;2022-12-20T06:03:20;6.32;;;4.18;;
51852;SDS011;37894;53.172;6.598;2022-12-20T06:05:46;8.25;;;4.57;;
51852;SDS011;37894;53.172;6.598;2022-12-20T06:08:12;8.77;;;4.50;;
51852;SDS011;37894;53.172;6.598;2022-12-20T06:10:39;6.13;;;3.85;;
51852;SDS011;37894;53.172;6.598;2022-12-20T06:13:05;6.90;;;4.18;;
51852;SDS011;37894;53.172;6.598;2022-12-20T06:15:31;5.53;;;3.63;;
51852;SDS011;37894;53.172;6.598;2022-12-20T06:17:57;6.35;;;4.00;;
51852;SDS011;37894;53.172;6.598;2022-12-20T06:20:23;5.05;;;3.53;;
51852;SDS011;37894;53.172;6.598;2022-12-20T06:22:49;7.60;;;3.65;;
51852;SDS011;37894;53.172;6.598;2022-12-20T06:25:16;6.18;;;3.60;;
51852;SDS011;37894;53.172;6.598;2022-12-20T06:27:42;5.75;;;3.38;;
51852;SDS011;37894;53.172;6.598;2022-12-20T06:30:08;5.90;;;3.53;;
51852;SDS011;37894;53.172;6.598;2022-12-20T06:32:35;6.20;;;3.95;;
51852;SDS011;37894;53.172;6.598;2022-12-20T06:35:00;5.65;;;3.60;;
51852;SDS011;37894;53.172;6.598;2022-12-20T06:37:26;7.30;;;3.65;;
51852;SDS011;37894;53.172;6.598;2022-12-20T06:39:52;7.35;;;3.60;;
51852;SDS011;37894;53.172;6.598;2022-12-20T06:42:17;7.07;;;3.90;;
51852;SDS011;37894;53.172;6.598;2022-12-20T06:44:43;7.28;;;4.25;;
51852;SDS011;37894;53.172;6.598;2022-12-20T06:47:09;8.55;;;3.42;;
51852;SDS011;37894;53.172;6.598;2022-12-20T06:49:35;6.88;;;3.33;;
51852;SDS011;37894;53.172;6.598;2022-12-20T06:52:01;7.88;;;3.65;;
51852;SDS011;37894;53.172;6.598;2022-12-20T06:54:27;6.68;;;4.03;;
51852;SDS011;37894;53.172;6.598;2022-12-20T06:56:52;9.38;;;4.43;;
51852;SDS011;37894;53.172;6.598;2022-12-20T06:59:18;7.43;;;4.28;;
51852;SDS011;37894;53.172;6.598;2022-12-20T07:01:44;7.43;;;4.25;;
51852;SDS011;37894;53.172;6.598;2022-12-20T07:04:10;7.03;;;4.78;;
51852;SDS011;37894;53.172;6.598;2022-12-20T07:06:35;6.63;;;3.97;;
51852;SDS011;37894;53.172;6.598;2022-12-20T07:09:01;8.70;;;5.05;;
51852;SDS011;37894;53.172;6.598;2022-12-20T07:11:27;8.70;;;5.03;;
51852;SDS011;37894;53.172;6.598;2022-12-20T07:13:54;7.97;;;5.32;;
51852;SDS011;37894;53.172;6.598;2022-12-20T07:16:21;10.73;;;6.47;;
51852;SDS011;37894;53.172;6.598;2022-12-20T07:18:53;8.43;;;5.57;;
51852;SDS011;37894;53.172;6.598;2022-12-20T07:21:19;9.77;;;5.97;;
51852;SDS011;37894;53.172;6.598;2022-12-20T07:23:46;10.18;;;6.30;;
51852;SDS011;37894;53.172;6.598;2022-12-20T07:26:12;9.48;;;6.57;;
51852;SDS011;37894;53.172;6.598;2022-12-20T07:28:39;12.15;;;8.45;;
51852;SDS011;37894;53.172;6.598;2022-12-20T07:31:06;9.57;;;7.15;;
51852;SDS011;37894;53.172;6.598;2022-12-20T07:33:32;10.68;;;7.00;;
51852;SDS011;37894;53.172;6.598;2022-12-20T07:36:02;9.18;;;6.75;;
51852;SDS011;37894;53.172;6.598;2022-12-20T07:38:29;9.87;;;7.40;;
51852;SDS011;37894;53.172;6.598;2022-12-20T07:40:55;9.63;;;6.80;;
51852;SDS011;37894;53.172;6.598;2022-12-20T07:43:21;12.02;;;7.13;;
51852;SDS011;37894;53.172;6.598;2022-12-20T07:45:47;9.35;;;6.88;;
51852;SDS011;37894;53.172;6.598;2022-12-20T07:48:13;9.57;;;7.32;;
51852;SDS011;37894;53.172;6.598;2022-12-20T07:50:38;10.27;;;7.28;;
51852;SDS011;37894;53.172;6.598;2022-12-20T07:53:05;8.18;;;6.68;;
51852;SDS011;37894;53.172;6.598;2022-12-20T07:55:33;9.70;;;7.15;;
51852;SDS011;37894;53.172;6.598;2022-12-20T07:58:02;10.95;;;7.10;;
51852;SDS011;37894;53.172;6.598;2022-12-20T08:00:31;10.15;;;7.40;;
51852;SDS011;37894;53.172;6.598;2022-12-20T08:02:59;11.43;;;7.40;;
51852;SDS011;37894;53.172;6.598;2022-12-20T08:05:57;11.40;;;7.10;;
51852;SDS011;37894;53.172;6.598;2022-12-20T08:08:24;12.27;;;7.32;;
51852;SDS011;37894;53.172;6.598;2022-12-20T08:10:50;14.57;;;6.82;;
51852;SDS011;37894;53.172;6.598;2022-12-20T08:13:16;9.32;;;7.50;;
51852;SDS011;37894;53.172;6.598;2022-12-20T08:15:42;13.40;;;6.63;;
51852;SDS011;37894;53.172;6.598;2022-12-20T08:18:08;9.10;;;6.32;;
51852;SDS011;37894;53.172;6.598;2022-12-20T08:20:34;8.82;;;6.15;;
51852;SDS011;37894;53.172;6.598;2022-12-20T08:23:01;10.88;;;5.63;;
51852;SDS011;37894;53.172;6.598;2022-12-20T08:25:28;7.55;;;5.40;;
51852;SDS011;37894;53.172;6.598;2022-12-20T08:27:54;6.90;;;5.43;;
51852;SDS011;37894;53.172;6.598;2022-12-20T08:30:19;8.27;;;5.20;;
51852;SDS011;37894;53.172;6.598;2022-12-20T08:32:45;8.93;;;5.20;;
51852;SDS011;37894;53.172;6.598;2022-12-20T08:35:11;6.78;;;5.28;;
51852;SDS011;37894;53.172;6.598;2022-12-20T08:37:37;9.10;;;4.88;;
51852;SDS011;37894;53.172;6.598;2022-12-20T08:40:03;7.90;;;4.70;;
51852;SDS011;37894;53.172;6.598;2022-12-20T08:42:29;8.73;;;4.80;;
51852;SDS011;37894;53.172;6.598;2022-12-20T08:44:55;5.88;;;4.25;;
51852;SDS011;37894;53.172;6.598;2022-12-20T08:47:20;7.50;;;3.97;;
51852;SDS011;37894;53.172;6.598;2022-12-20T08:49:46;8.20;;;4.00;;
51852;SDS011;37894;53.172;6.598;2022-12-20T08:52:12;8.05;;;4.47;;
51852;SDS011;37894;53.172;6.598;2022-12-20T08:54:37;8.63;;;3.88;;
51852;SDS011;37894;53.172;6.598;2022-12-20T08:57:03;6.28;;;4.10;;
51852;SDS011;37894;53.172;6.598;2022-12-20T08:59:29;6.88;;;3.55;;
51852;SDS011;37894;53.172;6.598;2022-12-20T09:01:54;5.47;;;3.67;;
51852;SDS011;37894;53.172;6.598;2022-12-20T09:04:20;6.93;;;3.75;;
51852;SDS011;37894;53.172;6.598;2022-12-20T09:06:46;6.93;;;3.90;;
51852;SDS011;37894;53.172;6.598;2022-12-20T09:09:15;6.45;;;3.90;;
51852;SDS011;37894;53.172;6.598;2022-12-20T09:11:41;6.60;;;3.67;;
51852;SDS011;37894;53.172;6.598;2022-12-20T09:14:07;6.13;;;3.45;;
51852;SDS011;37894;53.172;6.598;2022-12-20T09:16:33;7.50;;;3.90;;
51852;SDS011;37894;53.172;6.598;2022-12-20T09:19:00;6.82;;;3.60;;
51852;SDS011;37894;53.172;6.598;2022-12-20T09:21:27;6.47;;;3.42;;
51852;SDS011;37894;53.172;6.598;2022-12-20T09:23:53;6.75;;;3.30;;
51852;SDS011;37894;53.172;6.598;2022-12-20T09:26:20;5.53;;;3.92;;
51852;SDS011;37894;53.172;6.598;2022-12-20T09:28:47;6.15;;;3.30;;
51852;SDS011;37894;53.172;6.598;2022-12-20T09:31:15;8.38;;;4.28;;
51852;SDS011;37894;53.172;6.598;2022-12-20T09:33:43;10.88;;;3.45;;
51852;SDS011;37894;53.172;6.598;2022-12-20T09:36:10;5.35;;;3.13;;
51852;SDS011;37894;53.172;6.598;2022-12-20T09:38:37;5.22;;;3.00;;
51852;SDS011;37894;53.172;6.598;2022-12-20T09:41:04;10.80;;;3.83;;
51852;SDS011;37894;53.172;6.598;2022-12-20T09:43:32;6.45;;;3.28;;
51852;SDS011;37894;53.172;6.598;2022-12-20T09:45:59;5.03;;;2.95;;
51852;SDS011;37894;53.172;6.598;2022-12-20T09:48:30;7.78;;;3.60;;
51852;SDS011;37894;53.172;6.598;2022-12-20T09:56:36;7.28;;;3.08;;
51852;SDS011;37894;53.172;6.598;2022-12-20T09:59:18;8.32;;;2.97;;
51852;SDS011;37894;53.172;6.598;2022-12-20T10:01:45;7.68;;;3.55;;
51852;SDS011;37894;53.172;6.598;2022-12-20T10:04:25;6.20;;;3.10;;
51852;SDS011;37894;53.172;6.598;2022-12-20T10:25:48;6.57;;;2.90;;
51852;SDS011;37894;53.172;6.598;2022-12-20T10:28:24;7.63;;;3.10;;
51852;SDS011;37894;53.172;6.598;2022-12-20T10:31:05;5.60;;;3.15;;
51852;SDS011;37894;53.172;6.598;2022-12-20T10:33:32;6.32;;;3.10;;
51852;SDS011;37894;53.172;6.598;2022-12-20T10:39:00;6.20;;;3.08;;
51852;SDS011;37894;53.172;6.598;2022-12-20T10:44:17;5.55;;;2.85;;
51852;SDS011;37894;53.172;6.598;2022-12-20T10:46:45;6.53;;;3.22;;
51852;SDS011;37894;53.172;6.598;2022-12-20T10:52:02;5.13;;;2.88;;
51852;SDS011;37894;53.172;6.598;2022-12-20T10:54:39;5.00;;;3.40;;
51852;SDS011;37894;53.172;6.598;2022-12-20T10:59:57;5.47;;;3.33;;
51852;SDS011;37894;53.172;6.598;2022-12-20T11:02:26;5.68;;;3.00;;
51852;SDS011;37894;53.172;6.598;2022-12-20T11:04:56;10.43;;;3.00;;
51852;SDS011;37894;53.172;6.598;2022-12-20T11:07:25;9.48;;;3.20;;
51852;SDS011;37894;53.172;6.598;2022-12-20T11:09:54;5.70;;;3.25;;
51852;SDS011;37894;53.172;6.598;2022-12-20T11:12:21;6.65;;;3.40;;
51852;SDS011;37894;53.172;6.598;2022-12-20T11:14:47;5.47;;;3.42;;
51852;SDS011;37894;53.172;6.598;2022-12-20T11:17:16;7.03;;;3.20;;
51852;SDS011;37894;53.172;6.598;2022-12-20T11:25:05;6.22;;;3.60;;
51852;SDS011;37894;53.172;6.598;2022-12-20T11:30:23;10.23;;;4.95;;
51852;SDS011;37894;53.172;6.598;2022-12-20T11:38:41;7.45;;;3.92;;
51852;SDS011;37894;53.172;6.598;2022-12-20T11:44:06;10.32;;;4.38;;
51852;SDS011;37894;53.172;6.598;2022-12-20T11:52:02;7.47;;;3.72;;
51852;SDS011;37894;53.172;6.598;2022-12-20T11:54:35;10.57;;;3.70;;
51852;SDS011;37894;53.172;6.598;2022-12-20T11:57:28;5.53;;;3.42;;
51852;SDS011;37894;53.172;6.598;2022-12-20T12:00:01;7.07;;;3.88;;
51852;SDS011;37894;53.172;6.598;2022-12-20T12:05:21;6.93;;;4.97;;
51852;SDS011;37894;53.172;6.598;2022-12-20T12:07:52;8.98;;;4.40;;
51852;SDS011;37894;53.172;6.598;2022-12-20T12:10:24;5.50;;;3.88;;
51852;SDS011;37894;53.172;6.598;2022-12-20T12:13:15;9.45;;;4.75;;
51852;SDS011;37894;53.172;6.598;2022-12-20T12:16:00;9.50;;;4.55;;
51852;SDS011;37894;53.172;6.598;2022-12-20T12:18:41;10.10;;;5.00;;
51852;SDS011;37894;53.172;6.598;2022-12-20T12:24:51;9.68;;;4.43;;
51852;SDS011;37894;53.172;6.598;2022-12-20T12:26:45;8.27;;;4.80;;
51852;SDS011;37894;53.172;6.598;2022-12-20T12:29:12;11.43;;;5.50;;
51852;SDS011;37894;53.172;6.598;2022-12-20T12:32:14;8.32;;;5.35;;
51852;SDS011;37894;53.172;6.598;2022-12-20T12:35:03;9.43;;;5.65;;
51852;SDS011;37894;53.172;6.598;2022-12-20T12:37:51;9.73;;;5.63;;
51852;SDS011;37894;53.172;6.598;2022-12-20T12:40:35;8.32;;;5.60;;
51852;SDS011;37894;53.172;6.598;2022-12-20T12:46:13;12.88;;;5.90;;
51852;SDS011;37894;53.172;6.598;2022-12-20T12:51:32;11.00;;;6.35;;
51852;SDS011;37894;53.172;6.598;2022-12-20T12:56:59;9.55;;;6.35;;
51852;SDS011;37894;53.172;6.598;2022-12-20T13:04:28;10.50;;;6.78;;
51852;SDS011;37894;53.172;6.598;2022-12-20T13:21:15;11.90;;;6.22;;
51852;SDS011;37894;53.172;6.598;2022-12-20T13:23:43;10.35;;;6.93;;
51852;SDS011;37894;53.172;6.598;2022-12-20T13:26:40;12.85;;;6.60;;
51852;SDS011;37894;53.172;6.598;2022-12-20T13:29:25;9.40;;;6.72;;
51852;SDS011;37894;53.172;6.598;2022-12-20T13:31:56;12.52;;;8.85;;
51852;SDS011;37894;53.172;6.598;2022-12-20T13:34:41;12.15;;;7.40;;
51852;SDS011;37894;53.172;6.598;2022-12-20T13:37:24;11.25;;;7.57;;
51852;SDS011;37894;53.172;6.598;2022-12-20T13:39:51;13.00;;;7.18;;
51852;SDS011;37894;53.172;6.598;2022-12-20T13:42:29;12.00;;;7.15;;
51852;SDS011;37894;53.172;6.598;2022-12-20T13:45:02;10.23;;;6.97;;
51852;SDS011;37894;53.172;6.598;2022-12-20T13:47:39;8.73;;;7.03;;
51852;SDS011;37894;53.172;6.598;2022-12-20T13:50:30;10.25;;;7.13;;
51852;SDS011;37894;53.172;6.598;2022-12-20T13:53:01;12.80;;;7.53;;
51852;SDS011;37894;53.172;6.598;2022-12-20T13:58:43;10.48;;;7.30;;
51852;SDS011;37894;53.172;6.598;2022-12-20T14:00:52;10.60;;;7.07;;
51852;SDS011;37894;53.172;6.598;2022-12-20T14:03:28;9.48;;;7.20;;
51852;SDS011;37894;53.172;6.598;2022-12-20T14:05:56;9.55;;;7.60;;
51852;SDS011;37894;53.172;6.598;2022-12-20T14:08:26;10.85;;;8.27;;
51852;SDS011;37894;53.172;6.598;2022-12-20T14:11:08;12.70;;;7.57;;
51852;SDS011;37894;53.172;6.598;2022-12-20T14:13:36;10.48;;;8.68;;
51852;SDS011;37894;53.172;6.598;2022-12-20T14:16:06;9.25;;;7.53;;
51852;SDS011;37894;53.172;6.598;2022-12-20T14:18:35;11.95;;;9.35;;
51852;SDS011;37894;53.172;6.598;2022-12-20T14:21:01;12.63;;;8.23;;
51852;SDS011;37894;53.172;6.598;2022-12-20T14:23:35;12.48;;;8.63;;
51852;SDS011;37894;53.172;6.598;2022-12-20T14:26:14;14.90;;;8.80;;
51852;SDS011;37894;53.172;6.598;2022-12-20T14:28:43;11.30;;;8.55;;
51852;SDS011;37894;53.172;6.598;2022-12-20T14:33:59;12.20;;;9.00;;
51852;SDS011;37894;53.172;6.598;2022-12-20T14:36:25;15.05;;;10.82;;
51852;SDS011;37894;53.172;6.598;2022-12-20T14:38:51;12.27;;;9.25;;
51852;SDS011;37894;53.172;6.598;2022-12-20T14:41:37;13.98;;;9.30;;
51852;SDS011;37894;53.172;6.598;2022-12-20T14:44:17;15.20;;;10.18;;
51852;SDS011;37894;53.172;6.598;2022-12-20T14:46:47;13.65;;;10.02;;
51852;SDS011;37894;53.172;6.598;2022-12-20T14:51:46;14.95;;;11.07;;
51852;SDS011;37894;53.172;6.598;2022-12-20T14:54:20;15.27;;;11.70;;
51852;SDS011;37894;53.172;6.598;2022-12-20T14:56:50;13.50;;;10.60;;
51852;SDS011;37894;53.172;6.598;2022-12-20T14:59:20;13.15;;;10.05;;
51852;SDS011;37894;53.172;6.598;2022-12-20T15:01:49;15.73;;;12.00;;
51852;SDS011;37894;53.172;6.598;2022-12-20T15:04:31;18.60;;;11.18;;
51852;SDS011;37894;53.172;6.598;2022-12-20T15:06:59;14.93;;;10.82;;
51852;SDS011;37894;53.172;6.598;2022-12-20T15:09:26;16.13;;;11.88;;
51852;SDS011;37894;53.172;6.598;2022-12-20T15:11:53;17.08;;;12.23;;
51852;SDS011;37894;53.172;6.598;2022-12-20T15:16:49;18.50;;;13.10;;
51852;SDS011;37894;53.172;6.598;2022-12-20T15:19:16;18.55;;;13.07;;
51852;SDS011;37894;53.172;6.598;2022-12-20T15:21:41;19.80;;;14.13;;
51852;SDS011;37894;53.172;6.598;2022-12-20T15:24:10;20.45;;;14.40;;
51852;SDS011;37894;53.172;6.598;2022-12-20T15:26:38;20.88;;;14.52;;
51852;SDS011;37894;53.172;6.598;2022-12-20T15:29:05;19.42;;;14.07;;
51852;SDS011;37894;53.172;6.598;2022-12-20T15:31:32;20.48;;;15.32;;
51852;SDS011;37894;53.172;6.598;2022-12-20T15:33:59;19.70;;;14.20;;
51852;SDS011;37894;53.172;6.598;2022-12-20T15:36:28;19.33;;;14.50;;
51852;SDS011;37894;53.172;6.598;2022-12-20T15:38:55;24.77;;;16.33;;
51852;SDS011;37894;53.172;6.598;2022-12-20T15:41:22;27.80;;;17.48;;
51852;SDS011;37894;53.172;6.598;2022-12-20T15:43:53;22.27;;;15.43;;
51852;SDS011;37894;53.172;6.598;2022-12-20T15:46:21;21.13;;;15.18;;
51852;SDS011;37894;53.172;6.598;2022-12-20T15:48:48;19.25;;;14.50;;
51852;SDS011;37894;53.172;6.598;2022-12-20T15:51:17;21.35;;;15.27;;
51852;SDS011;37894;53.172;6.598;2022-12-20T15:53:52;20.58;;;15.25;;
51852;SDS011;37894;53.172;6.598;2022-12-20T15:56:19;21.58;;;14.65;;
51852;SDS011;37894;53.172;6.598;2022-12-20T15:58:46;24.33;;;14.93;;
51852;SDS011;37894;53.172;6.598;2022-12-20T16:01:35;22.38;;;16.13;;
51852;SDS011;37894;53.172;6.598;2022-12-20T16:04:00;24.15;;;15.25;;
51852;SDS011;37894;53.172;6.598;2022-12-20T16:06:26;21.85;;;15.73;;
51852;SDS011;37894;53.172;6.598;2022-12-20T16:08:52;22.40;;;15.23;;
51852;SDS011;37894;53.172;6.598;2022-12-20T16:11:22;30.50;;;19.88;;
51852;SDS011;37894;53.172;6.598;2022-12-20T16:13:51;24.85;;;16.17;;
51852;SDS011;37894;53.172;6.598;2022-12-20T16:16:19;28.65;;;17.23;;
51852;SDS011;37894;53.172;6.598;2022-12-20T16:18:46;27.27;;;17.75;;
51852;SDS011;37894;53.172;6.598;2022-12-20T16:21:20;23.70;;;17.05;;
51852;SDS011;37894;53.172;6.598;2022-12-20T16:23:47;22.48;;;16.40;;
51852;SDS011;37894;53.172;6.598;2022-12-20T16:26:15;29.73;;;17.55;;
51852;SDS011;37894;53.172;6.598;2022-12-20T16:28:43;28.70;;;18.75;;
51852;SDS011;37894;53.172;6.598;2022-12-20T16:33:44;26.48;;;18.65;;
51852;SDS011;37894;53.172;6.598;2022-12-20T16:36:10;32.13;;;21.98;;
51852;SDS011;37894;53.172;6.598;2022-12-20T16:38:36;30.27;;;21.25;;
51852;SDS011;37894;53.172;6.598;2022-12-20T16:41:09;32.88;;;21.17;;
51852;SDS011;37894;53.172;6.598;2022-12-20T16:43:40;32.65;;;20.73;;
51852;SDS011;37894;53.172;6.598;2022-12-20T16:46:07;36.40;;;21.73;;
51852;SDS011;37894;53.172;6.598;2022-12-20T16:48:38;49.10;;;26.75;;
51852;SDS011;37894;53.172;6.598;2022-12-20T16:51:10;35.60;;;21.85;;
51852;SDS011;37894;53.172;6.598;2022-12-20T16:54:13;37.60;;;24.00;;
51852;SDS011;37894;53.172;6.598;2022-12-20T16:56:38;39.70;;;23.77;;
51852;SDS011;37894;53.172;6.598;2022-12-20T16:59:05;43.80;;;25.75;;